createdAt,value
2018-12-21T00:01:20.733Z,630.50
2018-12-21T00:03:26.034Z,169.57
2018-12-21T00:05:29.672Z,52.23
2018-12-21T00:07:33.359Z,17.20
2018-12-21T00:09:39.375Z,3.93
2018-12-21T00:11:43.969Z,1.63
2018-12-21T00:13:48.145Z,152.33
2018-12-21T00:15:55.877Z,339.83
2018-12-21T00:18:03.658Z,40.97
2018-12-21T00:22:24.602Z,1.70
2018-12-21T00:24:29.081Z,1.50
2018-12-21T00:26:35.476Z,1.47
2018-12-21T00:28:42.170Z,1.20
2018-12-21T00:30:47.416Z,1.23
2018-12-21T00:32:56.902Z,2.30
2018-12-21T00:35:12.780Z,71.20
2018-12-21T00:39:38.132Z,5.80
2018-12-21T00:41:41.303Z,1.87
2018-12-21T00:43:54.785Z,1.13
2018-12-21T00:46:04.747Z,1.10
2018-12-21T00:48:09.497Z,1.30
2018-12-21T00:50:21.730Z,0.97
2018-12-21T00:52:25.749Z,0.90
2018-12-21T00:54:29.925Z,1.33
2018-12-21T00:56:33.692Z,1.10
2018-12-21T00:58:37.370Z,1.20
2018-12-21T01:00:41.247Z,0.90
2018-12-21T01:02:45.372Z,1.23
2018-12-21T01:04:49.185Z,0.90
2018-12-21T01:06:53.051Z,0.80
2018-12-21T01:08:56.696Z,0.80
2018-12-21T01:11:00.555Z,0.90
2018-12-21T01:13:07.990Z,25.33
2018-12-21T01:15:13.916Z,323.87
2018-12-21T01:17:20.681Z,46.20
2018-12-21T01:19:25.308Z,5.77
2018-12-21T01:21:29.933Z,1.50
2018-12-21T01:23:33.538Z,1.30
2018-12-21T01:25:37.756Z,1.47
2018-12-21T01:27:41.437Z,1.33
2018-12-21T01:29:44.942Z,0.90
2018-12-21T01:31:48.831Z,7.37
2018-12-21T01:33:52.300Z,36.90
2018-12-21T01:35:56.078Z,46.80
2018-12-21T01:37:59.743Z,163.50
2018-12-21T01:40:03.778Z,23.10
2018-12-21T01:42:07.943Z,4.60
2018-12-21T01:44:16.029Z,2.37
2018-12-21T01:46:20.170Z,80.17
2018-12-21T01:48:28.508Z,923.87
2018-12-21T01:50:32.833Z,838.83
2018-12-21T01:52:36.708Z,364.63
2018-12-21T01:54:40.383Z,106.53
2018-12-21T01:56:44.776Z,51.67
2018-12-21T01:58:48.635Z,24.27
2018-12-21T02:00:57.101Z,750.53
2018-12-21T02:03:03.607Z,650.03
2018-12-21T02:05:07.363Z,736.10
2018-12-21T02:07:11.356Z,244.27
2018-12-21T02:09:15.608Z,811.13
2018-12-21T02:11:19.199Z,368.30
2018-12-21T02:13:22.961Z,181.50
2018-12-21T02:15:26.996Z,689.27
2018-12-21T02:17:30.916Z,949.30
2018-12-21T02:19:34.466Z,930.03
2018-12-21T02:21:38.422Z,683.90
2018-12-21T02:23:42.119Z,788.67
2018-12-21T02:25:47.793Z,892.10
2018-12-21T02:27:54.816Z,972.77
2018-12-21T02:30:00.682Z,897.20
2018-12-21T02:32:05.181Z,663.13
2018-12-21T02:34:09.400Z,484.57
2018-12-21T02:36:13.132Z,313.63
2018-12-21T02:38:17.084Z,156.63
2018-12-21T02:40:21.026Z,57.90
2018-12-21T02:42:24.824Z,24.37
2018-12-21T02:44:28.628Z,7.97
2018-12-21T02:46:32.555Z,2.87
2018-12-21T02:48:36.241Z,2.50
2018-12-21T02:50:40.192Z,1.87
2018-12-21T02:52:44.347Z,1.50
2018-12-21T02:54:48.243Z,1.57
2018-12-21T02:56:54.428Z,3.63
2018-12-21T02:59:00.643Z,5.20
2018-12-21T03:01:06.197Z,8.07
2018-12-21T03:03:13.288Z,1.77
2018-12-21T03:05:17.162Z,1.33
2018-12-21T03:07:20.920Z,1.20
2018-12-21T03:09:24.961Z,1.37
2018-12-21T03:11:29.153Z,1.00
2018-12-21T03:13:32.876Z,0.93
2018-12-21T03:15:36.704Z,1.13
2018-12-21T03:17:40.904Z,1.10
2018-12-21T03:19:44.823Z,1.10
2018-12-21T03:21:48.274Z,0.90
2018-12-21T03:23:51.945Z,1.13
2018-12-21T03:25:56.624Z,1.00
2018-12-21T03:28:03.967Z,0.90
2018-12-21T03:30:09.515Z,0.87
2018-12-21T03:32:14.972Z,0.90
2018-12-21T03:34:18.637Z,0.80
2018-12-21T03:36:22.880Z,1.00
2018-12-21T03:38:26.565Z,0.80
2018-12-21T03:42:38.815Z,0.70
2018-12-21T03:44:42.752Z,0.80
2018-12-21T03:46:46.451Z,0.80
2018-12-21T03:48:50.655Z,0.80
2018-12-21T03:50:54.421Z,0.90
2018-12-21T03:52:58.302Z,0.90
2018-12-21T03:55:18.871Z,0.60
2018-12-21T03:57:22.381Z,0.73
2018-12-21T03:59:26.275Z,0.63
2018-12-21T04:01:30.211Z,0.70
2018-12-21T04:03:34.103Z,0.80
2018-12-21T04:05:37.857Z,0.73
2018-12-21T04:07:41.680Z,0.90
2018-12-21T04:09:45.449Z,1.03
2018-12-21T04:11:49.225Z,0.70
2018-12-21T04:13:54.094Z,0.70
2018-12-21T04:15:57.774Z,0.80
2018-12-21T04:18:01.603Z,0.80
2018-12-21T04:20:08.327Z,0.90
2018-12-21T04:22:15.116Z,0.60
2018-12-21T04:24:19.996Z,0.60
2018-12-21T04:26:26.022Z,0.80
2018-12-21T04:28:30.496Z,0.77
2018-12-21T04:30:34.807Z,0.80
2018-12-21T04:32:39.129Z,0.70
2018-12-21T04:34:42.849Z,0.60
2018-12-21T04:36:46.594Z,0.90
2018-12-21T04:38:50.492Z,0.53
2018-12-21T04:40:54.032Z,0.80
2018-12-21T04:42:58.543Z,0.77
2018-12-21T04:45:04.085Z,0.80
2018-12-21T04:47:07.758Z,0.70
2018-12-21T04:49:14.335Z,0.67
2018-12-21T04:51:20.658Z,0.73
2018-12-21T04:53:28.079Z,0.80
2018-12-21T04:55:33.526Z,0.90
2018-12-21T04:57:37.792Z,0.80
2018-12-21T04:59:41.508Z,0.93
2018-12-21T05:01:45.172Z,0.67
2018-12-21T05:03:50.946Z,0.80
2018-12-21T05:05:59.577Z,0.80
2018-12-21T05:08:04.042Z,0.70
2018-12-21T05:10:18.408Z,0.73
2018-12-21T05:12:28.110Z,0.87
2018-12-21T05:14:31.653Z,0.70
2018-12-21T05:16:35.745Z,0.80
2018-12-21T05:18:39.379Z,0.70
2018-12-21T05:20:43.126Z,0.70
2018-12-21T05:22:52.324Z,0.57
2018-12-21T05:24:55.956Z,0.90
2018-12-21T05:27:05.652Z,0.80
2018-12-21T05:29:09.756Z,0.67
2018-12-21T05:31:16.176Z,0.77
2018-12-21T05:33:21.556Z,0.80
2018-12-21T05:35:26.678Z,0.70
2018-12-21T05:37:30.984Z,0.70
2018-12-21T05:39:36.630Z,0.63
2018-12-21T05:41:41.197Z,0.83
2018-12-21T05:43:45.844Z,0.77
2018-12-21T05:45:50.640Z,0.70
2018-12-21T05:47:58.092Z,0.60
2018-12-21T05:50:02.456Z,0.60
2018-12-21T05:52:08.175Z,0.80
2018-12-21T05:54:12.136Z,0.90
2018-12-21T05:56:16.007Z,0.80
2018-12-21T05:58:21.975Z,0.70
2018-12-21T06:00:25.976Z,0.70
2018-12-21T06:02:29.625Z,0.70
2018-12-21T06:04:33.431Z,0.90
2018-12-21T06:06:41.074Z,0.80
2018-12-21T06:08:45.032Z,0.70
2018-12-21T06:10:48.515Z,0.67
2018-12-21T06:12:53.564Z,0.67
2018-12-21T06:15:00.255Z,0.80
2018-12-21T06:17:06.133Z,0.67
2018-12-21T06:19:12.450Z,0.67
2018-12-21T06:21:16.176Z,0.73
2018-12-21T06:23:20.099Z,0.60
2018-12-21T06:25:24.361Z,0.87
2018-12-21T06:27:28.555Z,0.70
2018-12-21T06:29:32.634Z,0.70
2018-12-21T06:31:36.747Z,0.90
2018-12-21T06:33:40.180Z,0.90
2018-12-21T06:35:43.725Z,0.67
2018-12-21T06:37:48.619Z,0.50
2018-12-21T06:39:52.511Z,0.80
2018-12-21T06:41:56.627Z,0.80
2018-12-21T06:44:03.485Z,0.80
2018-12-21T06:46:14.198Z,0.80
2018-12-21T06:48:18.104Z,0.80
2018-12-21T06:50:22.720Z,0.57
2018-12-21T06:52:26.416Z,1.00
2018-12-21T06:54:29.902Z,0.90
2018-12-21T06:56:34.095Z,0.70
2018-12-21T06:58:38.016Z,0.97
2018-12-21T07:00:41.858Z,0.90
2018-12-21T07:02:45.855Z,1.00
2018-12-21T07:04:49.368Z,0.53
2018-12-21T07:06:52.822Z,0.60
2018-12-21T07:08:56.993Z,0.90
2018-12-21T07:11:00.595Z,0.80
2018-12-21T07:13:05.124Z,0.77
2018-12-21T07:15:13.034Z,0.87
2018-12-21T07:17:18.234Z,0.70
2018-12-21T07:19:27.183Z,0.80
2018-12-21T07:21:31.631Z,0.90
2018-12-21T07:23:36.782Z,0.70
2018-12-21T07:25:40.687Z,0.77
2018-12-21T07:27:44.633Z,0.80
2018-12-21T07:29:48.582Z,0.87
2018-12-21T07:31:52.244Z,0.67
2018-12-21T07:33:56.166Z,0.93
2018-12-21T07:36:08.159Z,0.70
2018-12-21T07:38:06.043Z,0.80
2018-12-21T07:40:13.078Z,0.60
2018-12-21T07:42:19.438Z,0.90
2018-12-21T07:44:28.196Z,0.77
2018-12-21T07:46:35.670Z,0.70
2018-12-21T07:48:39.298Z,0.90
2018-12-21T07:50:43.246Z,0.70
2018-12-21T07:52:47.452Z,0.70
2018-12-21T07:54:51.330Z,0.70
2018-12-21T07:56:55.209Z,0.70
2018-12-21T07:58:59.096Z,0.67
2018-12-21T08:01:02.768Z,0.70
2018-12-21T08:03:07.080Z,0.70
2018-12-21T08:05:10.975Z,0.70
2018-12-21T08:07:16.858Z,0.70
2018-12-21T08:09:27.141Z,0.70
2018-12-21T08:11:33.233Z,0.70
2018-12-21T08:13:36.841Z,1.20
2018-12-21T08:15:40.902Z,0.60
2018-12-21T08:17:46.309Z,0.67
2018-12-21T08:19:54.089Z,0.60
2018-12-21T08:21:58.116Z,0.67
2018-12-21T08:24:08.576Z,0.70
2018-12-21T08:26:13.012Z,0.80
2018-12-21T08:28:16.984Z,0.87
2018-12-21T08:30:20.937Z,0.83
2018-12-21T08:32:26.721Z,0.60
2018-12-21T08:34:31.033Z,0.53
2018-12-21T08:36:35.438Z,0.70
2018-12-21T08:38:40.318Z,0.60
2018-12-21T08:40:44.935Z,0.70
2018-12-21T08:42:50.643Z,0.83
2018-12-21T08:44:57.856Z,0.70
2018-12-21T08:47:03.061Z,0.70
2018-12-21T08:49:15.524Z,0.97
2018-12-21T08:51:20.255Z,0.70
2018-12-21T08:53:26.344Z,0.63
2018-12-21T08:55:32.582Z,0.60
2018-12-21T08:57:37.253Z,1.00
2018-12-21T08:59:41.808Z,0.60
2018-12-21T09:01:45.799Z,0.60
2018-12-21T09:03:49.867Z,0.70
2018-12-21T09:05:55.942Z,0.67
2018-12-21T09:08:04.451Z,0.77
2018-12-21T09:10:12.721Z,22.00
2018-12-21T09:12:16.693Z,1.33
2018-12-21T09:14:21.096Z,0.67
2018-12-21T09:16:25.045Z,0.70
2018-12-21T09:18:29.483Z,0.60
2018-12-21T09:20:33.303Z,0.60
2018-12-21T09:22:36.936Z,0.90
2018-12-21T09:24:40.487Z,0.73
2018-12-21T09:26:45.335Z,1.17
2018-12-21T09:28:49.242Z,4.50
2018-12-21T09:30:52.748Z,153.63
2018-12-21T09:32:57.637Z,5.87
2018-12-21T09:35:05.917Z,3.20
2018-12-21T09:37:10.058Z,2.77
2018-12-21T09:39:16.176Z,115.10
2018-12-21T09:41:20.885Z,110.43
2018-12-21T09:43:24.640Z,16.53
2018-12-21T09:45:28.709Z,316.13
2018-12-21T09:47:32.640Z,37.87
2018-12-21T09:49:36.723Z,11.40
2018-12-21T09:51:40.745Z,5.40
2018-12-21T09:53:44.577Z,48.93
2018-12-21T09:55:48.445Z,218.70
2018-12-21T09:57:53.264Z,15.53
2018-12-21T09:59:57.196Z,144.73
2018-12-21T10:02:01.155Z,18.17
2018-12-21T10:04:10.799Z,6.80
2018-12-21T10:06:16.678Z,3.27
2018-12-21T10:08:22.176Z,3.10
2018-12-21T10:10:26.241Z,2.53
2018-12-21T10:12:30.142Z,2.90
2018-12-21T10:14:34.059Z,2.60
2018-12-21T10:16:38.123Z,397.83
2018-12-21T10:18:41.901Z,64.73
2018-12-21T10:20:45.600Z,10.70
2018-12-21T10:22:49.714Z,3.70
2018-12-21T10:24:55.373Z,3.10
2018-12-21T10:26:59.231Z,2.30
2018-12-21T10:29:04.381Z,2.97
2018-12-21T10:31:08.563Z,2.40
2018-12-21T10:33:14.045Z,2.33
2018-12-21T10:37:34.080Z,2.20
2018-12-21T10:39:37.662Z,2.23
2018-12-21T10:41:41.742Z,2.00
2018-12-21T10:43:45.321Z,5.20
2018-12-21T10:45:50.469Z,23.10
2018-12-21T10:47:55.113Z,80.77
2018-12-21T10:49:59.154Z,133.60
2018-12-21T10:52:03.418Z,316.73
2018-12-21T10:54:08.140Z,227.90
2018-12-21T10:56:13.228Z,481.13
2018-12-21T10:58:19.051Z,416.60
2018-12-21T11:00:25.511Z,444.57
2018-12-21T11:02:33.249Z,678.67
2018-12-21T11:04:37.096Z,467.10
2018-12-21T11:06:40.628Z,286.67
2018-12-21T11:08:44.299Z,177.17
2018-12-21T11:10:47.860Z,89.47
2018-12-21T11:12:53.796Z,999.90
2018-12-21T11:15:04.469Z,999.90
2018-12-21T11:17:08.018Z,999.90
2018-12-21T11:19:12.188Z,914.23
2018-12-21T11:21:16.220Z,614.43
2018-12-21T11:23:21.561Z,410.50
2018-12-21T11:25:26.031Z,999.90
2018-12-21T11:27:29.635Z,987.33
2018-12-21T11:29:33.463Z,660.53
2018-12-21T11:31:37.629Z,999.90
2018-12-21T11:33:41.206Z,719.40
2018-12-21T11:35:44.764Z,450.30
2018-12-21T11:37:49.046Z,316.27
2018-12-21T11:39:55.061Z,182.83
2018-12-21T11:42:00.700Z,89.87
2018-12-21T11:44:10.676Z,51.93
2018-12-21T11:46:17.121Z,24.43
2018-12-21T11:48:21.016Z,10.03
2018-12-21T11:50:24.855Z,4.93
2018-12-21T11:52:30.061Z,3.67
2018-12-21T11:54:33.913Z,3.10
2018-12-21T11:56:38.335Z,2.50
2018-12-21T11:58:42.281Z,2.33
2018-12-21T12:00:47.127Z,1.97
2018-12-21T12:02:52.131Z,2.10
2018-12-21T12:04:58.183Z,1.80
2018-12-21T12:07:08.830Z,1.80
2018-12-21T12:09:25.399Z,1.73
2018-12-21T12:11:29.329Z,1.57
2018-12-21T12:13:33.112Z,1.63
2018-12-21T12:15:36.989Z,1.53
2018-12-21T12:17:40.843Z,714.30
2018-12-21T12:19:44.498Z,114.77
2018-12-21T12:21:48.314Z,12.80
2018-12-21T12:23:52.127Z,4.27
2018-12-21T12:25:55.964Z,2.37
2018-12-21T12:28:02.934Z,1.60
2018-12-21T12:30:09.506Z,39.40
2018-12-21T12:32:18.895Z,165.60
2018-12-21T12:34:22.855Z,422.07
2018-12-21T12:36:26.738Z,154.47
2018-12-21T12:38:30.421Z,444.37
2018-12-21T12:40:35.227Z,239.77
2018-12-21T12:42:39.187Z,40.60
2018-12-21T12:44:43.893Z,10.87
2018-12-21T12:46:47.744Z,2.53
2018-12-21T12:48:51.432Z,1.80
2018-12-21T12:50:54.900Z,1.73
2018-12-21T12:52:59.263Z,15.33
2018-12-21T12:55:04.956Z,254.80
2018-12-21T12:57:12.996Z,491.70
2018-12-21T12:59:20.544Z,339.17
2018-12-21T13:08:03.255Z,444.37
2018-12-21T13:10:11.640Z,769.37
2018-12-21T13:12:24.099Z,758.20
2018-12-21T13:14:30.491Z,345.03
2018-12-21T13:16:35.622Z,139.67
2018-12-21T13:18:39.339Z,73.13
2018-12-21T13:20:43.507Z,20.40
2018-12-21T13:22:47.557Z,5.80
2018-12-21T13:24:51.683Z,2.60
2018-12-21T13:26:55.305Z,2.00
2018-12-21T13:28:59.432Z,1.80
2018-12-21T13:31:03.207Z,1.57
2018-12-21T13:33:06.807Z,1.57
2018-12-21T13:35:13.072Z,1.27
2018-12-21T13:37:19.804Z,1.40
2018-12-21T13:39:26.507Z,1.30
2018-12-21T13:41:31.573Z,1.47
2018-12-21T13:43:36.408Z,1.10
2018-12-21T13:45:40.297Z,1.10
2018-12-21T13:47:45.008Z,1.00
2018-12-21T13:49:48.880Z,1.03
2018-12-21T13:51:52.503Z,1.10
2018-12-21T13:53:57.540Z,0.90
2018-12-21T13:56:02.568Z,1.20
2018-12-21T13:58:06.808Z,22.93
2018-12-21T14:00:11.333Z,30.27
2018-12-21T14:02:16.852Z,92.47
2018-12-21T14:04:23.572Z,102.97
2018-12-21T14:06:31.098Z,53.67
2018-12-21T14:08:38.778Z,14.40
2018-12-21T14:10:42.342Z,6.40
2018-12-21T14:12:46.782Z,2.83
2018-12-21T14:14:53.128Z,1.40
2018-12-21T14:17:03.503Z,1.60
2018-12-21T14:19:08.557Z,14.73
2018-12-21T14:21:12.252Z,467.83
2018-12-21T14:23:15.911Z,54.07
2018-12-21T14:25:28.606Z,17.70
2018-12-21T14:27:27.054Z,5.07
2018-12-21T14:29:30.628Z,2.77
2018-12-21T14:31:40.238Z,1.63
2018-12-21T14:33:45.100Z,1.90
2018-12-21T14:35:48.793Z,1.40
2018-12-21T14:37:55.183Z,1.43
2018-12-21T14:40:02.436Z,1.20
2018-12-21T14:42:11.727Z,1.40
2018-12-21T14:44:16.384Z,1.40
2018-12-21T14:46:19.972Z,1.10
2018-12-21T14:48:24.436Z,0.90
2018-12-21T14:50:29.139Z,0.90
2018-12-21T14:52:33.272Z,1.03
2018-12-21T14:54:36.814Z,1.17
2018-12-21T14:56:40.460Z,0.87
2018-12-21T14:58:44.112Z,1.10
2018-12-21T15:00:51.507Z,0.97
2018-12-21T15:02:55.579Z,0.90
2018-12-21T15:05:03.201Z,0.90
2018-12-21T15:07:10.765Z,1.30
2018-12-21T15:09:17.962Z,0.80
2018-12-21T15:11:21.714Z,0.90
2018-12-21T15:13:25.445Z,0.80
2018-12-21T15:15:29.265Z,0.80
2018-12-21T15:17:33.249Z,0.90
2018-12-21T15:19:36.962Z,0.80
2018-12-21T15:21:40.691Z,0.97
2018-12-21T15:23:44.254Z,0.77
2018-12-21T15:25:48.729Z,0.60
2018-12-21T15:27:52.394Z,0.50
2018-12-21T15:29:56.321Z,0.70
2018-12-21T15:32:01.048Z,0.87
2018-12-21T15:34:06.414Z,0.80
2018-12-21T15:36:14.007Z,0.87
2018-12-21T15:38:23.144Z,0.80
2018-12-21T15:40:26.853Z,0.60
2018-12-21T15:42:30.505Z,0.70
2018-12-21T15:44:34.180Z,0.70
2018-12-21T15:46:37.733Z,0.70
2018-12-21T15:48:41.737Z,0.93
2018-12-21T15:50:45.396Z,0.50
2018-12-21T15:52:49.216Z,0.60
2018-12-21T15:54:55.309Z,0.70
2018-12-21T15:56:59.036Z,0.80
2018-12-21T15:59:06.722Z,0.73
2018-12-21T16:01:15.012Z,0.97
2018-12-21T16:03:27.334Z,0.63
2018-12-21T16:05:33.027Z,0.80
2018-12-21T16:07:36.706Z,0.60
2018-12-21T16:09:40.328Z,0.70
2018-12-21T16:13:56.410Z,0.50
2018-12-21T16:16:04.320Z,0.60
2018-12-21T16:18:08.443Z,0.60
2018-12-21T16:20:19.006Z,0.67
2018-12-21T16:22:27.870Z,0.60
2018-12-21T16:24:34.388Z,0.60
2018-12-21T16:26:38.686Z,0.60
2018-12-21T16:28:57.443Z,0.60
2018-12-21T16:31:03.222Z,0.70
2018-12-21T16:33:07.606Z,1.27
2018-12-21T16:35:21.147Z,591.23
2018-12-21T16:37:30.575Z,337.40
2018-12-21T16:39:36.328Z,495.20
2018-12-21T16:41:40.921Z,460.57
2018-12-21T16:43:47.263Z,470.17
2018-12-21T16:45:52.666Z,415.87
2018-12-21T16:47:56.439Z,338.17
2018-12-21T16:50:07.555Z,588.87
2018-12-21T16:52:11.221Z,726.83
2018-12-21T16:54:14.980Z,711.73
2018-12-21T16:56:19.353Z,376.83
2018-12-21T17:00:31.640Z,146.53
2018-12-21T17:02:35.697Z,88.37
2018-12-21T17:04:40.209Z,52.63
2018-12-21T17:06:43.867Z,29.03
2018-12-21T17:08:48.498Z,13.73
2018-12-21T17:10:57.284Z,6.40
2018-12-21T17:13:04.404Z,3.63
2018-12-21T17:15:09.782Z,2.33
2018-12-21T17:17:16.660Z,1.50
2018-12-21T17:19:23.836Z,1.40
2018-12-21T17:21:31.742Z,1.20
2018-12-21T17:23:42.190Z,0.90
2018-12-21T17:25:51.190Z,1.13
2018-12-21T17:27:55.416Z,0.97
2018-12-21T17:29:59.390Z,0.90
2018-12-21T17:32:04.454Z,0.50
2018-12-21T17:34:08.506Z,1.00
2018-12-21T17:36:12.862Z,1.07
2018-12-21T17:38:16.363Z,0.90
2018-12-21T17:40:20.200Z,1.00
2018-12-21T17:42:24.240Z,0.90
2018-12-21T17:44:32.510Z,0.93
2018-12-21T17:46:38.058Z,0.87
2018-12-21T17:48:43.652Z,0.83
2018-12-21T17:50:47.809Z,0.73
2018-12-21T17:52:51.510Z,0.80
2018-12-21T17:54:56.002Z,0.80
2018-12-21T17:57:00.155Z,0.60
2018-12-21T17:59:04.428Z,0.83
2018-12-21T18:01:09.609Z,0.60
2018-12-21T18:03:22.822Z,0.80
2018-12-21T18:05:26.931Z,0.70
2018-12-21T18:07:33.398Z,0.67
2018-12-21T18:09:42.613Z,0.97
2018-12-21T18:11:57.031Z,0.70
2018-12-21T18:13:54.767Z,0.60
2018-12-21T18:15:58.729Z,0.83
2018-12-21T18:18:02.873Z,0.70
2018-12-21T18:20:12.453Z,0.77
2018-12-21T18:22:21.027Z,0.70
2018-12-21T18:24:26.652Z,0.87
2018-12-21T18:26:38.521Z,0.80
2018-12-21T18:28:40.952Z,0.70
2018-12-21T18:30:50.998Z,0.70
2018-12-21T18:33:10.930Z,0.70
2018-12-21T18:35:19.651Z,0.60
2018-12-21T18:37:25.570Z,0.80
2018-12-21T18:39:38.988Z,0.50
2018-12-21T18:41:48.182Z,0.70
2018-12-21T18:43:57.731Z,0.73
2018-12-21T18:46:08.216Z,0.80
2018-12-21T18:48:12.775Z,0.50
2018-12-21T18:50:17.749Z,1.00
2018-12-21T18:52:23.068Z,0.77
2018-12-21T18:54:28.509Z,0.70
2018-12-21T18:56:38.163Z,0.60
2018-12-21T18:58:45.466Z,0.67
2018-12-21T19:00:58.738Z,0.80
2018-12-21T19:03:08.416Z,0.60
2018-12-21T19:05:13.208Z,0.50
2018-12-21T19:07:18.366Z,0.60
2018-12-21T19:09:23.656Z,0.87
2018-12-21T19:11:33.506Z,0.80
2018-12-21T19:13:41.122Z,0.67
2018-12-21T19:15:50.196Z,0.70
2018-12-21T19:18:01.283Z,0.63
2018-12-21T19:20:10.144Z,0.70
2018-12-21T19:22:17.423Z,0.70
2018-12-21T19:24:25.768Z,0.73
2018-12-21T19:26:31.460Z,0.70
2018-12-21T19:28:37.699Z,0.70
2018-12-21T19:30:51.516Z,0.80
2018-12-21T19:33:04.313Z,0.90
2018-12-21T19:35:12.636Z,0.47
2018-12-21T19:37:17.185Z,0.70
2018-12-21T19:39:21.206Z,0.97
2018-12-21T19:41:25.126Z,0.93
2018-12-21T19:43:29.034Z,1.20
2018-12-21T19:45:34.341Z,0.60
2018-12-21T19:47:41.096Z,0.70
2018-12-21T19:49:45.539Z,0.73
2018-12-21T19:51:51.803Z,0.73
2018-12-21T19:53:58.289Z,0.87
2018-12-21T19:57:14.105Z,1.00
2018-12-21T19:59:17.908Z,0.90
2018-12-21T20:01:24.779Z,1.10
2018-12-21T20:03:30.567Z,0.80
2018-12-21T20:05:36.461Z,0.80
2018-12-21T20:07:42.796Z,0.80
2018-12-21T20:09:46.636Z,0.77
2018-12-21T20:11:50.655Z,0.70
2018-12-21T20:13:55.235Z,0.90
2018-12-21T20:16:00.922Z,0.80
2018-12-21T20:18:07.098Z,0.80
2018-12-21T20:20:12.235Z,0.60
2018-12-21T20:22:16.283Z,0.80
2018-12-21T20:24:24.315Z,0.80
2018-12-21T20:26:31.426Z,0.87
2018-12-21T20:28:37.614Z,0.90
2018-12-21T20:30:43.384Z,0.80
2018-12-21T20:32:49.465Z,0.80
2018-12-21T20:34:54.196Z,1.10
2018-12-21T20:36:59.427Z,1.10
2018-12-21T20:39:04.425Z,1.10
2018-12-21T20:41:11.103Z,1.33
2018-12-21T20:43:15.648Z,0.80
2018-12-21T20:45:22.037Z,0.80
2018-12-21T20:47:27.519Z,0.97
2018-12-21T20:49:33.531Z,1.00
2018-12-21T20:51:42.610Z,1.23
2018-12-21T20:53:49.307Z,1.00
2018-12-21T20:55:53.494Z,1.13
2018-12-21T20:58:06.072Z,0.87
2018-12-21T21:00:13.715Z,1.10
2018-12-21T21:02:18.840Z,1.30
2018-12-21T21:04:23.295Z,1.30
2018-12-21T21:06:27.719Z,1.17
2018-12-21T21:08:31.903Z,1.10
2018-12-21T21:10:43.480Z,1.20
2018-12-21T21:12:51.126Z,1.37
2018-12-21T21:14:55.008Z,1.17
2018-12-21T21:16:59.106Z,1.10
2018-12-21T21:19:06.373Z,2.00
2018-12-21T21:21:10.591Z,1.30
2018-12-21T21:23:15.837Z,1.33
2018-12-21T21:25:21.594Z,1.20
2018-12-21T21:27:30.372Z,1.60
2018-12-21T21:29:33.293Z,1.50
2018-12-21T21:31:44.316Z,1.10
2018-12-21T21:33:52.990Z,1.50
2018-12-21T21:35:57.553Z,1.13
2018-12-21T21:38:03.121Z,1.40
2018-12-21T21:40:10.444Z,1.20
2018-12-21T21:42:14.388Z,1.47
2018-12-21T21:44:18.969Z,1.20
2018-12-21T21:46:22.984Z,1.00
2018-12-21T21:48:27.360Z,1.40
2018-12-21T21:50:31.037Z,1.17
2018-12-21T21:52:34.660Z,1.60
2018-12-21T21:54:38.267Z,1.30
2018-12-21T21:56:45.913Z,1.30
2018-12-21T21:58:51.641Z,1.17
2018-12-21T22:00:59.961Z,1.43
2018-12-21T22:03:04.187Z,1.10
2018-12-21T22:05:08.432Z,1.33
2018-12-21T22:07:12.781Z,1.57
2018-12-21T22:09:16.433Z,1.80
2018-12-21T22:11:21.025Z,1.20
2018-12-21T22:13:25.656Z,1.07
2018-12-21T22:15:29.504Z,1.37
2018-12-21T22:17:33.397Z,1.10
2018-12-21T22:19:40.732Z,1.30
2018-12-21T22:21:47.233Z,1.53
2018-12-21T22:26:09.522Z,1.50
2018-12-21T22:28:13.384Z,1.60
2018-12-21T22:30:17.185Z,1.00
2018-12-21T22:32:22.158Z,1.73
2018-12-21T22:34:26.048Z,1.57
2018-12-21T22:36:29.831Z,1.40
2018-12-21T22:38:35.103Z,1.30
2018-12-21T22:40:39.200Z,1.50
2018-12-21T22:42:44.371Z,1.63
2018-12-21T22:44:49.903Z,1.63
2018-12-21T22:46:59.112Z,1.73
2018-12-21T22:49:10.164Z,1.63
2018-12-21T22:51:15.858Z,1.30
2018-12-21T22:53:22.858Z,1.30
2018-12-21T22:55:28.725Z,1.43
2018-12-21T22:57:37.262Z,1.50
2018-12-21T22:59:43.639Z,1.47
2018-12-21T23:01:47.269Z,1.50
2018-12-21T23:03:51.768Z,1.60
2018-12-21T23:05:56.230Z,1.23
2018-12-21T23:08:00.077Z,1.30
2018-12-21T23:10:03.856Z,1.27
2018-12-21T23:12:39.471Z,1.30
2018-12-21T23:14:45.375Z,1.50
2018-12-21T23:16:49.608Z,1.40
2018-12-21T23:18:53.717Z,1.30
2018-12-21T23:20:57.788Z,1.50
2018-12-21T23:23:03.166Z,1.67
2018-12-21T23:25:08.163Z,1.60
2018-12-21T23:27:13.559Z,1.57
2018-12-21T23:29:17.495Z,1.33
2018-12-21T23:31:21.425Z,1.17
2018-12-21T23:33:25.156Z,1.10
2018-12-21T23:35:29.898Z,1.47
2018-12-21T23:37:36.120Z,1.70
2018-12-21T23:39:46.002Z,1.63
2018-12-21T23:41:52.362Z,1.93
2018-12-21T23:43:56.148Z,1.30
2018-12-21T23:45:59.876Z,1.60
2018-12-21T23:48:04.222Z,2.03
2018-12-21T23:50:08.379Z,1.10
2018-12-21T23:52:15.555Z,1.70
2018-12-21T23:54:20.013Z,1.60
2018-12-21T23:56:23.568Z,1.33
2018-12-21T23:58:27.200Z,1.27
